Time;durP1;ratioP1;P1;durP2;ratioP2;P2;SDS_P1;SDS_P2;PMS_P1;PMS_P2;Temp;Humidity;BMP_temperature;BMP_pressure;BME280_temperature;BME280_humidity;BME280_pressure;Samples;Min_cycle;Max_cycle;Signal;HPM_P1;HPM_P2
2021/11/19 00:00:55;;;;;;;10.80;7.53;;;;;;;16.57;67.59;101989.78;4845270;29;20030;-93
2021/11/19 00:03:21;;;;;;;14.95;7.68;;;;;;;16.48;67.47;101987.75;4844259;29;20062;-94
2021/11/19 00:05:47;;;;;;;15.00;8.18;;;;;;;16.43;67.60;101992.53;4844003;29;20072;-93
2021/11/19 00:08:15;;;;;;;13.20;7.35;;;;;;;16.45;67.41;101983.53;4844417;29;20523;-92
2021/11/19 00:10:40;;;;;;;11.60;7.55;;;;;;;16.50;67.51;101979.72;4843202;29;20507;-93
2021/11/19 00:13:07;;;;;;;11.02;7.78;;;;;;;16.46;67.39;101979.06;4844309;29;20030;-93
2021/11/19 00:15:33;;;;;;;12.55;8.15;;;;;;;16.51;67.31;101984.03;4843635;29;20033;-93
2021/11/19 00:17:59;;;;;;;13.38;8.73;;;;;;;16.57;67.32;101992.44;4842455;29;20446;-92
2021/11/19 00:20:28;;;;;;;11.85;8.40;;;;;;;16.39;67.71;101983.06;4843868;29;20034;-92
2021/11/19 00:22:59;;;;;;;15.68;10.10;;;;;;;16.54;67.38;101991.78;4843520;29;20389;-92
2021/11/19 00:25:25;;;;;;;15.05;9.02;;;;;;;16.51;67.30;101974.31;4842385;29;20036;-93
2021/11/19 00:27:51;;;;;;;14.38;8.77;;;;;;;16.54;67.40;101973.22;4844040;29;20026;-93
2021/11/19 00:30:24;;;;;;;12.93;7.43;;;;;;;16.30;67.60;101973.94;4842330;29;20098;-93
2021/11/19 00:32:50;;;;;;;14.98;8.10;;;;;;;16.46;67.35;101973.75;4843470;29;20120;-93
2021/11/19 00:35:16;;;;;;;12.23;8.43;;;;;;;16.26;67.86;101970.66;4843223;29;20117;-94
2021/11/19 00:37:45;;;;;;;10.38;7.13;;;;;;;16.35;67.87;101978.94;4842309;29;20485;-93
2021/11/19 00:40:18;;;;;;;11.25;7.10;;;;;;;16.52;67.59;101977.78;4843491;29;20036;-92
2021/11/19 00:42:43;;;;;;;10.35;7.30;;;;;;;16.56;67.37;101976.63;4843432;29;20054;-94
2021/11/19 00:45:09;;;;;;;11.15;6.63;;;;;;;16.51;67.38;101976.97;4843575;29;20030;-93
2021/11/19 00:47:34;;;;;;;13.90;7.63;;;;;;;16.60;67.02;101978.97;4843732;29;20026;-93
2021/11/19 00:50:04;;;;;;;8.32;6.63;;;;;;;16.44;67.66;101978.31;4843615;29;20508;-93
2021/11/19 00:52:29;;;;;;;12.15;6.45;;;;;;;16.48;67.66;101987.75;4843239;29;20091;-94
2021/11/19 00:54:55;;;;;;;12.15;7.90;;;;;;;16.55;67.51;101997.00;4843608;29;20030;-93
2021/11/19 00:57:21;;;;;;;10.95;8.10;;;;;;;16.50;67.12;101991.16;4843310;29;20073;-93
2021/11/19 00:59:47;;;;;;;11.68;7.95;;;;;;;16.35;67.63;101981.56;4843267;29;20386;-93
2021/11/19 01:02:16;;;;;;;16.73;8.18;;;;;;;16.34;67.60;101987.84;4842891;29;20037;-92
2021/11/19 01:04:42;;;;;;;14.13;7.97;;;;;;;16.19;67.63;101987.94;4843408;29;20467;-93
2021/11/19 01:07:09;;;;;;;11.65;8.40;;;;;;;16.27;67.47;101987.38;4843475;29;20093;-94
2021/11/19 01:09:39;;;;;;;11.55;8.75;;;;;;;16.43;66.83;101985.44;4843261;29;20037;-93
2021/11/19 01:12:08;;;;;;;12.18;8.70;;;;;;;16.49;67.09;101989.47;4842811;29;20042;-93
2021/11/19 01:14:52;;;;;;;13.07;8.50;;;;;;;16.56;67.04;101998.69;4843296;29;20034;-93
2021/11/19 01:17:26;;;;;;;12.10;8.60;;;;;;;16.59;66.80;101989.69;4828826;29;20037;-93
2021/11/19 01:20:08;;;;;;;15.70;8.60;;;;;;;16.60;66.49;101991.38;4843125;29;20029;-94
2021/11/19 01:22:36;;;;;;;11.60;8.70;;;;;;;16.46;66.76;101987.00;4842958;29;20037;-93
2021/11/19 01:25:06;;;;;;;13.15;9.18;;;;;;;16.43;66.37;101988.06;4843022;29;20040;-92
2021/11/19 01:27:32;;;;;;;12.48;9.32;;;;;;;16.49;66.45;101988.59;4842969;29;20026;-93
2021/11/19 01:29:57;;;;;;;12.63;10.35;;;;;;;16.49;66.12;101997.44;4842267;29;20037;-93
2021/11/19 01:32:25;;;;;;;14.25;10.63;;;;;;;16.50;66.23;101987.66;4842874;29;20078;-93
2021/11/19 01:34:51;;;;;;;13.25;10.95;;;;;;;16.36;66.70;101988.59;4842786;29;20038;-93
2021/11/19 01:37:16;;;;;;;12.93;10.25;;;;;;;16.48;66.40;101993.06;4842873;29;20090;-93
2021/11/19 01:39:43;;;;;;;13.13;9.70;;;;;;;16.39;66.98;101997.19;4842738;29;20034;-93
2021/11/19 01:42:15;;;;;;;14.75;10.65;;;;;;;16.10;67.60;102001.78;4841459;29;20119;-93
2021/11/19 01:45:14;;;;;;;10.82;8.73;;;;;;;16.23;67.20;102001.81;4841547;29;20033;-93
2021/11/19 01:47:44;;;;;;;12.80;9.05;;;;;;;16.16;67.48;102000.53;4842483;29;20040;-93
2021/11/19 01:50:28;;;;;;;11.60;8.98;;;;;;;16.20;67.50;102005.50;4842730;29;20040;-93
2021/11/19 01:53:17;;;;;;;11.25;8.38;;;;;;;16.37;66.85;101998.22;4842479;29;20034;-93
2021/11/19 01:55:53;;;;;;;14.18;8.43;;;;;;;16.02;68.38;101996.13;4842534;29;20435;-93
2021/11/19 01:58:23;;;;;;;12.00;7.95;;;;;;;16.40;67.04;101995.38;4842633;29;20105;-93
2021/11/19 02:01:02;;;;;;;14.15;9.73;;;;;;;16.47;66.47;101991.38;4841765;29;20045;-93
2021/11/19 02:03:34;;;;;;;11.80;8.68;;;;;;;16.42;66.69;101985.53;4841683;29;20451;-93
2021/11/19 02:06:13;;;;;;;11.68;8.65;;;;;;;16.44;66.19;101987.09;4841899;29;20022;-94
2021/11/19 02:08:42;;;;;;;10.80;8.00;;;;;;;16.49;66.19;101984.16;4842261;29;20556;-93
2021/11/19 02:11:16;;;;;;;11.98;7.93;;;;;;;16.30;66.36;101981.91;4842186;29;20056;-93
2021/11/19 02:13:56;;;;;;;9.38;7.55;;;;;;;16.42;66.17;101982.88;4842246;29;20495;-93
2021/11/19 02:16:29;;;;;;;12.80;8.13;;;;;;;16.46;66.02;101984.34;4841605;29;20326;-93
2021/11/19 02:19:00;;;;;;;13.48;8.68;;;;;;;16.33;66.42;101979.06;4842019;29;20030;-93
2021/11/19 02:21:30;;;;;;;12.40;7.53;;;;;;;16.47;66.22;101988.72;4842055;29;20056;-93
2021/11/19 02:24:00;;;;;;;11.50;7.75;;;;;;;16.48;65.95;101987.75;4841893;29;20281;-93
2021/11/19 02:26:35;;;;;;;12.48;8.32;;;;;;;16.46;66.16;101984.34;4841795;29;20042;-93
2021/11/19 02:29:00;;;;;;;10.68;7.75;;;;;;;16.46;66.30;101984.34;4841511;29;20168;-93
2021/11/19 02:31:30;;;;;;;9.63;7.60;;;;;;;16.52;65.82;101991.06;4841867;29;20492;-93
2021/11/19 02:33:59;;;;;;;9.50;6.88;;;;;;;16.15;66.59;101989.09;4840553;29;20078;-92
2021/11/19 02:36:51;;;;;;;8.95;7.07;;;;;;;16.49;65.96;101993.91;4841810;29;20184;-93
2021/11/19 02:39:22;;;;;;;;;;;;;;;16.59;65.61;101987.88;4842051;29;20524;-93
2021/11/19 02:42:00;;;;;;;7.90;6.85;;;;;;;16.67;65.62;101982.06;4841892;29;20011;-93
2021/11/19 02:44:34;;;;;;;8.85;5.95;;;;;;;16.65;65.61;101983.97;4840703;29;20026;-93
2021/11/19 02:47:01;;;;;;;10.00;7.22;;;;;;;16.35;66.03;101966.53;4841402;29;20034;-92
2021/11/19 02:49:27;;;;;;;10.57;6.82;;;;;;;16.53;66.07;101983.00;4841655;29;20458;-93
2021/11/19 02:51:53;;;;;;;9.60;7.10;;;;;;;16.59;65.86;101979.09;4841559;29;20069;-93
2021/11/19 02:54:21;;;;;;;9.68;6.80;;;;;;;16.58;65.94;101972.06;4841713;29;20034;-93
2021/11/19 02:56:48;;;;;;;10.57;6.20;;;;;;;16.53;66.38;101966.22;4841650;29;20034;-94
2021/11/19 02:59:14;;;;;;;7.50;5.25;;;;;;;16.60;66.00;101960.41;4840831;29;20026;-93
2021/11/19 03:01:45;;;;;;;10.57;6.05;;;;;;;16.63;65.91;101962.84;4841040;29;20548;-93
2021/11/19 03:04:21;;;;;;;13.00;5.57;;;;;;;16.46;66.96;101964.00;4841778;29;20026;-93
2021/11/19 03:06:50;;;;;;;12.85;5.65;;;;;;;16.65;66.17;101960.94;4841259;29;20030;-93
2021/11/19 03:09:20;;;;;;;10.55;6.05;;;;;;;16.65;66.29;101958.28;4841288;29;20034;-93
2021/11/19 03:11:46;;;;;;;9.45;5.55;;;;;;;16.69;66.24;101958.09;4841519;29;20068;-93
2021/11/19 03:14:13;;;;;;;8.82;5.72;;;;;;;16.62;66.14;101965.59;4840725;29;20038;-93
2021/11/19 03:16:40;;;;;;;12.38;6.35;;;;;;;16.64;66.35;101963.69;4839442;29;20026;-93
2021/11/19 03:19:06;;;;;;;10.43;6.10;;;;;;;16.70;66.30;101965.91;4839933;29;20113;-93
2021/11/19 03:21:32;;;;;;;7.97;5.50;;;;;;;16.69;66.08;101960.75;4840859;29;20086;-93
2021/11/19 03:23:58;;;;;;;8.63;5.43;;;;;;;16.68;66.18;101961.69;4840625;29;20034;-92
2021/11/19 03:26:27;;;;;;;13.23;6.20;;;;;;;16.76;66.03;101968.13;4841126;29;20570;-93
2021/11/19 03:28:52;;;;;;;9.70;6.18;;;;;;;16.71;66.26;101959.66;4841227;29;20026;-93
2021/11/19 03:31:18;;;;;;;11.02;6.65;;;;;;;16.62;66.62;101953.19;4841055;29;20034;-93
2021/11/19 03:33:47;;;;;;;9.30;6.00;;;;;;;16.61;66.38;101948.00;4841081;29;20041;-93
2021/11/19 03:36:14;;;;;;;7.82;5.80;;;;;;;16.71;66.18;101957.03;4840613;29;20090;-93
2021/11/19 03:38:43;;;;;;;15.63;7.35;;;;;;;16.63;66.25;101954.06;4841033;29;20030;-92
2021/11/19 03:41:10;;;;;;;9.25;6.28;;;;;;;16.63;66.13;101949.59;4840996;29;20515;-93
2021/11/19 03:43:42;;;;;;;9.55;6.65;;;;;;;16.41;66.56;101949.34;4841030;29;20117;-93
2021/11/19 03:46:11;;;;;;;9.70;7.13;;;;;;;16.53;66.65;101948.53;4840980;29;20030;-93
2021/11/19 03:48:37;;;;;;;9.13;6.43;;;;;;;16.62;66.08;101947.88;4840976;29;20069;-93
2021/11/19 03:51:29;;;;;;;11.32;5.82;;;;;;;16.71;66.24;101953.53;4840678;29;20041;-93
2021/11/19 03:53:55;;;;;;;12.88;7.53;;;;;;;16.50;66.03;101950.53;4839246;29;20038;-93
2021/11/19 03:56:21;;;;;;;9.43;6.45;;;;;;;16.66;66.10;101957.31;4840759;29;20063;-93
2021/11/19 03:58:49;;;;;;;9.93;6.65;;;;;;;16.67;65.73;101952.88;4840842;29;20034;-93
2021/11/19 04:01:28;;;;;;;9.57;7.10;;;;;;;16.56;66.06;101950.13;4840608;29;20068;-94
2021/11/19 04:03:53;;;;;;;9.85;7.25;;;;;;;16.48;65.91;101953.28;4840373;29;20038;-93
2021/11/19 04:06:21;;;;;;;9.65;6.72;;;;;;;16.56;65.82;101948.31;4840993;29;20557;-93
2021/11/19 04:08:47;;;;;;;10.20;6.60;;;;;;;16.62;65.82;101942.56;4840688;29;20078;-93
2021/11/19 04:11:13;;;;;;;9.07;7.25;;;;;;;16.47;66.00;101941.00;4840859;29;20033;-93
2021/11/19 04:13:40;;;;;;;10.45;7.35;;;;;;;16.26;66.57;101941.50;4842112;29;20374;-93
2021/11/19 04:16:14;;;;;;;11.27;7.30;;;;;;;16.56;65.99;101953.59;4843800;29;20042;-93
2021/11/19 04:18:40;;;;;;;9.35;6.55;;;;;;;16.50;65.61;101954.03;4844160;29;20082;-92
2021/11/19 04:21:07;;;;;;;9.70;6.03;;;;;;;16.59;65.51;101953.41;4842543;29;20042;-94
2021/11/19 04:23:33;;;;;;;10.07;7.28;;;;;;;16.60;65.59;101952.44;4844033;29;20034;-94
2021/11/19 04:26:03;;;;;;;9.65;7.32;;;;;;;16.64;65.63;101951.28;4844147;29;20026;-93
2021/11/19 04:28:29;;;;;;;10.05;7.38;;;;;;;16.69;65.46;101947.47;4842846;29;20049;-93
2021/11/19 04:30:56;;;;;;;9.77;7.28;;;;;;;16.60;65.64;101939.19;4843711;29;20098;-93
2021/11/19 04:33:22;;;;;;;10.73;7.65;;;;;;;16.62;65.77;101939.91;4843837;29;20041;-93
2021/11/19 04:35:49;;;;;;;12.27;7.97;;;;;;;16.65;65.36;101938.88;4843699;29;20026;-93
2021/11/19 04:38:15;;;;;;;8.70;6.93;;;;;;;16.76;65.30;101944.28;4844147;29;20175;-93
2021/11/19 04:40:41;;;;;;;13.00;8.00;;;;;;;16.61;65.48;101951.50;4843850;29;20433;-94
2021/11/19 04:43:07;;;;;;;9.93;7.00;;;;;;;16.67;65.17;101955.53;4843747;29;20397;-93
2021/11/19 04:45:34;;;;;;;10.23;7.50;;;;;;;16.69;65.13;101947.47;4843508;29;20042;-93
2021/11/19 04:48:00;;;;;;;12.77;8.02;;;;;;;16.69;65.13;101947.47;4843454;29;20049;-93
2021/11/19 04:50:29;;;;;;;10.57;8.05;;;;;;;16.60;65.51;101941.00;4843731;29;20030;-93
2021/11/19 04:52:55;;;;;;;8.85;7.38;;;;;;;16.64;65.25;101945.13;4842380;29;20110;-94
2021/11/19 04:55:21;;;;;;;12.45;7.72;;;;;;;16.63;65.28;101949.59;4843652;29;20670;-93
2021/11/19 04:57:47;;;;;;;9.55;7.80;;;;;;;16.58;65.17;101950.84;4843454;29;20515;-93
2021/11/19 05:00:21;;;;;;;11.57;9.07;;;;;;;16.61;65.23;101951.50;4843125;29;20030;-93
2021/11/19 05:02:46;;;;;;;11.70;8.68;;;;;;;16.58;65.30;101953.50;4843384;29;20042;-93
2021/11/19 05:05:12;;;;;;;11.93;8.48;;;;;;;16.56;65.27;101956.25;4843427;29;20086;-93
2021/11/19 05:07:37;;;;;;;10.77;8.18;;;;;;;16.63;65.07;101952.25;4842058;29;20034;-93
2021/11/19 05:10:04;;;;;;;10.85;8.30;;;;;;;16.60;65.07;101949.78;4841306;29;20061;-93
2021/11/19 05:12:34;;;;;;;7.68;6.47;;;;;;;16.54;65.01;101955.50;4843236;29;20484;-93
2021/11/19 05:14:59;;;;;;;7.30;5.60;;;;;;;16.56;65.07;101952.78;4842899;29;20034;-93
2021/11/19 05:17:25;;;;;;;6.88;6.18;;;;;;;16.61;64.88;101959.47;4843372;29;20079;-94
2021/11/19 05:19:51;;;;;;;7.57;5.78;;;;;;;16.63;64.67;101954.06;4843167;29;20033;-94
2021/11/19 05:22:17;;;;;;;5.97;5.22;;;;;;;16.68;64.70;101956.38;4843110;29;20049;-93
2021/11/19 05:24:44;;;;;;;9.65;6.90;;;;;;;16.62;64.80;101958.47;4842642;29;20113;-93
2021/11/19 05:27:09;;;;;;;8.43;7.00;;;;;;;16.65;64.78;101960.94;4842826;29;20488;-93
2021/11/19 05:29:36;;;;;;;8.02;6.82;;;;;;;16.64;64.75;101956.56;4843070;29;20173;-93
2021/11/19 05:32:02;;;;;;;7.53;6.72;;;;;;;16.50;65.23;101966.44;4843529;29;20445;-93
2021/11/19 05:34:27;;;;;;;9.05;6.22;;;;;;;16.65;64.50;101965.41;4842818;29;20030;-93
2021/11/19 05:36:53;;;;;;;10.95;7.10;;;;;;;16.66;64.49;101962.63;4842775;29;20033;-94
2021/11/19 05:39:19;;;;;;;8.00;6.65;;;;;;;16.70;64.36;101959.78;4842999;29;20083;-93
2021/11/19 05:41:45;;;;;;;9.65;7.22;;;;;;;16.60;64.53;101962.22;4842396;29;20030;-93
2021/11/19 05:44:11;;;;;;;9.20;7.00;;;;;;;16.45;64.93;101964.97;4842729;29;20029;-93
2021/11/19 05:46:40;;;;;;;9.48;7.00;;;;;;;16.48;65.23;101971.00;4842731;29;20449;-93
2021/11/19 05:49:12;;;;;;;10.13;7.55;;;;;;;16.21;65.91;101974.56;4842610;29;20481;-94
2021/11/19 05:51:39;;;;;;;8.32;7.03;;;;;;;16.35;65.15;101971.84;4842532;29;20042;-93
2021/11/19 05:54:07;;;;;;;8.80;7.00;;;;;;;16.44;65.33;101975.66;4841953;29;20040;-93
2021/11/19 05:56:32;;;;;;;10.15;7.60;;;;;;;16.60;64.96;101972.81;4842484;29;20026;-93
2021/11/19 05:58:58;;;;;;;9.88;7.50;;;;;;;16.58;65.05;101972.91;4841149;29;20028;-93
2021/11/19 06:01:24;;;;;;;9.07;7.40;;;;;;;16.64;64.99;101988.41;4841673;29;20481;-93
2021/11/19 06:03:50;;;;;;;9.73;7.47;;;;;;;16.64;64.65;101983.09;4841278;29;20297;-93
2021/11/19 06:06:16;;;;;;;9.30;7.40;;;;;;;16.55;64.93;101988.22;4842296;29;20026;-93
2021/11/19 06:08:44;;;;;;;9.00;7.70;;;;;;;16.55;65.19;101983.75;4840962;29;20030;-93
2021/11/19 06:12:02;;;;;;;10.50;7.18;;;;;;;16.69;64.77;101984.63;4842263;29;20062;-93
2021/11/19 06:14:34;;;;;;;9.95;7.85;;;;;;;16.59;64.62;101990.53;4812050;29;20485;-93
2021/11/19 06:17:18;;;;;;;9.50;8.50;;;;;;;16.65;64.67;101990.13;4841760;29;20034;-93
2021/11/19 06:19:48;;;;;;;12.25;8.02;;;;;;;16.71;64.37;101983.53;4841007;29;20078;-93
2021/11/19 06:22:19;;;;;;;12.00;7.95;;;;;;;16.62;64.44;101995.59;4841828;29;20077;-93
2021/11/19 06:24:47;;;;;;;11.98;8.85;;;;;;;16.69;64.50;102000.53;4842053;29;20469;-93
2021/11/19 06:27:19;;;;;;;10.07;7.95;;;;;;;16.65;64.49;102006.03;4840578;29;20026;-92
2021/11/19 06:29:44;;;;;;;11.45;7.80;;;;;;;16.79;64.15;101998.94;4841547;29;20022;-93
2021/11/19 06:32:10;;;;;;;10.30;7.53;;;;;;;16.86;64.26;102008.19;4841639;29;20090;-93
2021/11/19 06:34:35;;;;;;;15.05;8.07;;;;;;;16.81;64.37;102010.28;4840870;29;20481;-93
2021/11/19 06:37:00;;;;;;;9.25;7.25;;;;;;;16.72;64.56;102014.41;4841439;29;20541;-92
2021/11/19 06:39:26;;;;;;;9.05;7.55;;;;;;;16.61;65.04;102009.84;4841341;29;20041;-93
2021/11/19 06:41:51;;;;;;;7.80;6.57;;;;;;;16.59;64.90;102011.75;4841753;29;20086;-93
2021/11/19 06:44:17;;;;;;;9.63;7.82;;;;;;;16.55;65.28;102012.91;4841587;29;20050;-93
2021/11/19 06:46:42;;;;;;;12.13;8.18;;;;;;;16.53;65.37;102016.59;4841154;29;20044;-93
2021/11/19 06:49:10;;;;;;;13.82;9.68;;;;;;;16.54;65.13;102011.19;4841698;29;20045;-93
2021/11/19 06:51:35;;;;;;;17.88;8.57;;;;;;;16.56;65.49;102017.25;4840170;29;20037;-93
2021/11/19 06:54:01;;;;;;;11.80;8.80;;;;;;;16.54;65.27;102020.97;4841482;29;20524;-93
2021/11/19 06:56:26;;;;;;;13.90;8.63;;;;;;;16.54;65.49;102021.81;4841203;29;20037;-93
2021/11/19 06:58:52;;;;;;;11.05;7.68;;;;;;;16.55;65.48;102027.97;4841485;29;20030;-93
2021/11/19 07:01:18;;;;;;;10.98;7.82;;;;;;;16.56;65.22;102017.25;4840906;29;20421;-93
2021/11/19 07:03:44;;;;;;;15.75;7.97;;;;;;;16.45;65.84;102019.78;4823100;29;20038;-94
2021/11/19 07:06:11;;;;;;;10.82;8.27;;;;;;;16.49;65.70;102015.09;4823412;29;20030;-93
2021/11/19 07:08:36;;;;;;;12.13;8.48;;;;;;;16.50;65.60;102020.31;4823334;29;20046;-93
2021/11/19 07:11:09;;;;;;;11.85;8.50;;;;;;;16.37;65.45;102017.66;4830772;29;20084;-92
2021/11/19 07:13:36;;;;;;;12.43;7.95;;;;;;;16.42;65.79;102020.81;4841259;29;20058;-93
2021/11/19 07:16:01;;;;;;;12.13;8.23;;;;;;;16.34;66.00;102023.16;4841321;29;20037;-93
2021/11/19 07:18:27;;;;;;;11.00;7.85;;;;;;;16.49;65.24;102015.97;4840831;29;20037;-92
2021/11/19 07:20:53;;;;;;;11.38;8.95;;;;;;;16.29;65.79;102024.41;4841449;29;20038;-93
2021/11/19 07:23:19;;;;;;;10.43;8.55;;;;;;;16.23;65.92;102023.00;4841506;29;20497;-92
2021/11/19 07:25:46;;;;;;;10.15;8.20;;;;;;;16.28;66.06;102023.56;4839774;29;20030;-93
2021/11/19 07:28:12;;;;;;;11.23;8.05;;;;;;;16.25;65.90;102023.75;4839920;29;20061;-88
2021/11/19 07:30:47;;;;;;;8.75;7.03;;;;;;;16.28;65.92;102023.56;4841166;29;20034;-89
2021/11/19 07:33:13;;;;;;;11.27;7.32;;;;;;;16.57;64.99;102029.56;4838574;29;20429;-88
2021/11/19 07:35:41;;;;;;;15.43;9.43;;;;;;;16.09;66.37;102037.16;4840895;29;20030;-89
2021/11/19 07:38:08;;;;;;;11.48;7.70;;;;;;;16.33;65.68;102031.19;4840214;29;20041;-89
2021/11/19 07:40:36;;;;;;;11.77;8.05;;;;;;;16.41;65.39;102028.88;4840497;29;20030;-89
2021/11/19 07:43:01;;;;;;;10.68;7.45;;;;;;;16.44;65.39;102037.47;4848484;29;20389;-89
2021/11/19 07:45:35;;;;;;;13.07;7.82;;;;;;;16.51;65.13;102043.25;4858424;29;20029;-90
2021/11/19 07:48:00;;;;;;;11.35;7.63;;;;;;;16.48;64.91;102046.09;4846639;29;20120;-92
2021/11/19 07:50:27;;;;;;;10.27;7.53;;;;;;;16.34;65.19;102043.50;4855233;29;20032;-92
2021/11/19 07:52:52;;;;;;;10.52;7.50;;;;;;;16.18;65.45;102048.97;4844209;29;20089;-91
2021/11/19 07:55:18;;;;;;;10.82;8.25;;;;;;;16.37;65.08;102044.16;4844392;29;20477;-91
2021/11/19 07:57:44;;;;;;;11.88;8.27;;;;;;;16.51;64.82;102050.31;4844371;29;20038;-89
2021/11/19 08:00:15;;;;;;;10.63;7.90;;;;;;;16.60;64.63;102050.56;4847500;29;20037;-94
2021/11/19 08:02:40;;;;;;;13.13;8.65;;;;;;;16.53;64.82;102054.59;4846634;29;20156;-92
2021/11/19 08:05:06;;;;;;;14.63;9.55;;;;;;;16.42;65.32;102054.44;4852259;29;20175;-92
2021/11/19 08:07:33;;;;;;;14.48;10.27;;;;;;;16.39;65.32;102057.28;4845467;29;20036;-94
2021/11/19 08:09:59;;;;;;;14.45;9.57;;;;;;;16.43;65.15;102064.13;4857928;29;20108;-93
2021/11/19 08:12:25;;;;;;;14.35;10.95;;;;;;;16.32;65.34;102056.84;4851707;29;20127;-91
2021/11/19 08:14:51;;;;;;;14.45;10.45;;;;;;;16.29;65.58;102061.50;4862532;29;20409;-92
2021/11/19 08:17:36;;;;;;;12.30;9.73;;;;;;;16.33;65.04;102065.66;4844185;29;20026;-94
2021/11/19 08:20:05;;;;;;;15.27;11.27;;;;;;;16.23;65.73;102071.56;4851682;29;20065;-93
2021/11/19 08:22:30;;;;;;;15.32;10.40;;;;;;;16.54;64.74;102068.69;4844456;29;20030;-92
2021/11/19 08:24:58;;;;;;;16.13;11.13;;;;;;;16.52;64.80;102076.75;4851880;29;20456;-94
2021/11/19 08:27:30;;;;;;;12.73;10.07;;;;;;;16.59;64.57;102080.69;4862905;29;20025;-96
2021/11/19 08:29:58;;;;;;;13.73;10.18;;;;;;;16.64;64.58;102081.22;4846386;29;20104;-95
2021/11/19 08:32:26;;;;;;;14.77;10.32;;;;;;;16.57;64.92;102077.28;4845512;29;20038;-94
2021/11/19 08:34:51;;;;;;;15.50;10.52;;;;;;;16.50;64.88;102076.00;4849070;29;20382;-94
2021/11/19 08:37:20;;;;;;;12.65;10.45;;;;;;;16.58;64.64;102084.28;4843457;29;20022;-94
2021/11/19 08:39:46;;;;;;;16.48;12.02;;;;;;;16.54;64.57;102082.78;4846162;29;20066;-96
2021/11/19 08:42:12;;;;;;;14.38;11.65;;;;;;;16.62;64.59;102084.94;4849484;29;20042;-94
2021/11/19 08:44:40;;;;;;;14.75;11.13;;;;;;;16.66;64.29;102081.97;4845226;29;20042;-94
2021/11/19 08:47:07;;;;;;;22.13;12.63;;;;;;;16.59;64.34;102091.31;4845144;29;20090;-92
2021/11/19 08:49:34;;;;;;;13.23;10.25;;;;;;;16.60;64.41;102094.78;4844235;29;20034;-93
2021/11/19 08:52:01;;;;;;;13.57;9.48;;;;;;;16.60;64.19;102093.00;4844344;29;20069;-93
2021/11/19 08:54:26;;;;;;;12.35;8.80;;;;;;;16.52;64.69;102095.31;4843292;29;20113;-92
2021/11/19 08:56:55;;;;;;;13.10;8.32;;;;;;;16.58;64.59;102094.88;4843613;29;20104;-92
2021/11/19 08:59:23;;;;;;;10.60;8.25;;;;;;;16.61;64.45;102089.41;4840759;29;20030;-93
2021/11/19 09:01:53;;;;;;;11.68;7.90;;;;;;;16.56;64.45;102096.78;4843001;29;20030;-92
2021/11/19 09:04:19;;;;;;;11.40;8.23;;;;;;;16.63;64.39;102102.56;4842587;29;20370;-90
2021/11/19 09:06:44;;;;;;;11.15;6.82;;;;;;;16.63;64.36;102108.72;4843093;29;20034;-92
2021/11/19 09:09:10;;;;;;;8.30;6.25;;;;;;;16.67;64.01;102104.06;4842919;29;20052;-93
2021/11/19 09:11:37;;;;;;;7.57;6.03;;;;;;;16.59;64.47;102099.25;4842944;29;20042;-92
2021/11/19 09:14:04;;;;;;;8.18;6.10;;;;;;;16.66;64.31;102095.22;4842904;29;20030;-92
2021/11/19 09:17:08;;;;;;;9.43;5.97;;;;;;;16.68;64.29;102091.63;4847804;29;20037;-93
2021/11/19 09:19:55;;;;;;;6.80;5.20;;;;;;;16.76;63.96;102103.41;4839413;29;20481;-94
2021/11/19 09:22:40;;;;;;;7.97;5.57;;;;;;;16.52;64.58;102107.72;4842314;29;20489;-92
2021/11/19 09:25:09;;;;;;;6.53;5.32;;;;;;;16.78;63.95;102105.97;4842551;29;20433;-93
2021/11/19 09:27:36;;;;;;;6.93;5.10;;;;;;;16.91;63.78;102114.84;4842690;29;20025;-93
2021/11/19 09:30:14;;;;;;;9.18;6.15;;;;;;;16.79;63.79;102113.00;4842809;29;20477;-93
2021/11/19 09:32:41;;;;;;;9.80;6.18;;;;;;;16.84;64.25;102119.72;4842658;29;20124;-94
2021/11/19 09:35:07;;;;;;;11.10;6.15;;;;;;;16.86;64.00;102111.63;4842359;29;20037;-93
2021/11/19 09:37:32;;;;;;;8.25;6.05;;;;;;;16.99;63.75;102115.16;4842886;29;20090;-93
2021/11/19 09:39:58;;;;;;;7.68;5.45;;;;;;;17.07;63.79;102108.50;4840866;29;20485;-93
2021/11/19 09:42:55;;;;;;;7.57;5.53;;;;;;;17.09;63.40;102109.25;4841286;29;20030;-93
2021/11/19 09:45:49;;;;;;;8.25;6.80;;;;;;;16.96;64.02;102110.09;4850709;29;20060;-93
2021/11/19 09:48:37;;;;;;;8.60;6.15;;;;;;;17.21;63.63;102109.25;4842716;29;20032;-93
2021/11/19 09:51:55;;;;;;;12.50;8.40;;;;;;;17.27;63.22;102117.75;4838397;29;20125;-93
2021/11/19 09:54:39;;;;;;;11.18;8.15;;;;;;;17.34;62.80;102119.88;4824016;29;20411;-93
2021/11/19 09:57:10;;;;;;;12.52;9.00;;;;;;;17.39;62.83;102117.72;4841833;29;20038;-94
2021/11/19 09:59:43;;;;;;;15.33;9.33;;;;;;;17.37;62.72;102126.75;4845492;29;20038;-94
2021/11/19 10:02:46;;;;;;;11.50;8.93;;;;;;;17.43;62.78;102121.03;4843365;29;20273;-93
2021/11/19 10:05:38;;;;;;;12.00;8.57;;;;;;;16.94;63.95;102124.38;4831168;29;20061;-93
2021/11/19 10:08:18;;;;;;;11.80;6.82;;;;;;;17.37;63.12;102124.94;4841344;29;20038;-93
2021/11/19 10:11:16;;;;;;;10.20;6.90;;;;;;;17.20;63.20;102117.28;4847625;29;20029;-93
2021/11/19 10:14:30;;;;;;;8.68;5.85;;;;;;;17.47;62.86;102119.00;4842046;29;20052;-94
2021/11/19 10:17:10;;;;;;;9.60;6.30;;;;;;;17.52;62.77;102116.91;4836691;29;20073;-93
2021/11/19 10:19:57;;;;;;;8.55;6.15;;;;;;;17.64;62.48;102116.03;4832736;29;20030;-93
2021/11/19 10:22:36;;;;;;;9.15;6.15;;;;;;;17.69;62.50;102118.34;4843659;29;20154;-94
2021/11/19 10:25:13;;;;;;;8.05;6.30;;;;;;;17.81;61.82;102126.31;4852262;29;20053;-93
2021/11/19 10:27:45;;;;;;;9.23;6.30;;;;;;;17.82;62.12;102120.00;4844803;29;20034;-93
2021/11/19 10:30:17;;;;;;;8.43;6.03;;;;;;;17.91;61.53;102115.03;4856955;29;20082;-93
2021/11/19 10:32:42;;;;;;;7.20;5.70;;;;;;;18.05;61.65;102117.56;4856948;29;20493;-94
2021/11/19 10:35:26;;;;;;;8.90;6.53;;;;;;;18.11;61.56;102117.13;4843801;29;20034;-93
2021/11/19 10:38:23;;;;;;;9.23;6.68;;;;;;;18.04;62.15;102113.19;4841685;29;20030;-94
2021/11/19 10:41:29;;;;;;;7.32;5.50;;;;;;;18.40;61.30;102109.66;4842563;29;20042;-93
2021/11/19 10:44:32;;;;;;;9.32;6.43;;;;;;;18.52;61.05;102107.91;4841744;29;20042;-93
2021/11/19 10:47:03;;;;;;;8.45;6.35;;;;;;;18.59;60.24;102108.28;4843235;29;20400;-93
2021/11/19 10:50:00;;;;;;;9.63;6.13;;;;;;;18.80;60.11;102105.84;4842476;29;20105;-93
2021/11/19 10:52:54;;;;;;;8.02;5.40;;;;;;;18.72;60.43;102109.06;4842340;29;20400;-93
2021/11/19 10:55:42;;;;;;;5.15;4.60;;;;;;;18.73;60.11;102104.56;4845972;29;20254;-94
2021/11/19 10:58:43;;;;;;;8.93;4.57;;;;;;;18.73;60.08;102105.41;4844207;29;20034;-93
2021/11/19 11:01:11;;;;;;;4.80;3.80;;;;;;;18.53;59.79;102104.25;4841049;29;20101;-94
2021/11/19 11:04:00;;;;;;;6.95;4.63;;;;;;;18.53;60.05;102098.09;4848442;29;20120;-94
2021/11/19 11:06:38;;;;;;;6.55;4.60;;;;;;;18.48;60.46;102098.41;4843288;29;20610;-94
2021/11/19 11:09:38;;;;;;;5.38;4.72;;;;;;;18.54;60.50;102092.66;4842094;29;20047;-95
2021/11/19 11:12:27;;;;;;;5.50;4.85;;;;;;;18.51;60.61;102095.53;4838446;29;20038;-93
2021/11/19 11:15:14;;;;;;;7.95;5.63;;;;;;;18.47;60.45;102088.75;4856315;29;20034;-94
2021/11/19 11:17:54;;;;;;;7.28;4.93;;;;;;;18.48;60.60;102086.94;4832101;29;20033;-93
2021/11/19 11:20:35;;;;;;;7.20;4.93;;;;;;;18.42;60.33;102085.59;4853197;29;20030;-94
2021/11/19 11:23:19;;;;;;;8.32;5.28;;;;;;;18.43;60.99;102089.97;4854092;29;20037;-93
2021/11/19 11:26:12;;;;;;;8.55;5.45;;;;;;;18.39;60.44;102080.50;4844366;29;20033;-91
2021/11/19 11:29:00;;;;;;;7.80;5.47;;;;;;;18.47;60.31;102083.44;4845958;29;20511;-91
2021/11/19 11:32:03;;;;;;;8.55;5.68;;;;;;;18.42;60.33;102080.28;4850138;29;20041;-90
2021/11/19 11:34:44;;;;;;;7.32;5.15;;;;;;;18.30;60.81;102083.84;4842721;29;20042;-91
2021/11/19 11:37:13;;;;;;;7.93;6.28;;;;;;;18.27;60.80;102081.44;4858026;29;20026;-91
2021/11/19 11:39:52;;;;;;;8.48;5.22;;;;;;;18.16;61.20;102079.56;4855721;29;20025;-91